createdAt,value
2018-07-26T10:15:07.265Z,3.80
2018-07-26T10:25:10.168Z,3.80
2018-07-26T10:35:13.308Z,3.67
2018-07-26T10:45:16.478Z,4.22
2018-07-26T10:55:19.561Z,3.90
2018-07-26T11:05:22.693Z,4.15
2018-07-26T11:15:27.400Z,4.35
2018-07-26T11:25:30.436Z,4.12
2018-07-26T11:35:33.558Z,4.22
2018-07-26T11:45:36.688Z,4.15
2018-07-26T11:55:39.817Z,3.90
2018-07-26T12:05:43.000Z,4.87
2018-07-26T12:15:46.106Z,4.43
2018-07-26T12:25:49.229Z,5.72
2018-07-26T12:35:52.427Z,5.50
2018-07-26T12:45:55.521Z,5.05
2018-07-26T12:55:58.695Z,4.70
2018-07-26T13:06:01.806Z,4.83
2018-07-26T13:16:05.017Z,5.10
2018-07-26T13:26:08.086Z,5.00
2018-07-26T13:36:11.233Z,4.87
2018-07-26T13:46:14.399Z,6.40
2018-07-26T13:56:17.533Z,5.70
2018-07-26T14:06:20.693Z,5.17
2018-07-26T14:16:23.793Z,4.70
2018-07-26T14:26:27.096Z,4.37
2018-07-26T14:36:43.393Z,4.35
2018-07-26T14:46:47.816Z,4.20
2018-07-26T14:56:50.929Z,4.10
2018-07-26T15:06:55.458Z,4.20
2018-07-26T15:16:58.915Z,3.90
2018-07-26T15:27:01.953Z,4.00
2018-07-26T15:37:05.381Z,5.30
2018-07-26T15:47:09.904Z,4.40
2018-07-26T15:57:13.066Z,4.50
2018-07-26T16:07:16.135Z,4.07
2018-07-26T16:17:19.947Z,4.10
2018-07-26T16:27:23.043Z,4.37
2018-07-26T16:37:27.209Z,4.23
2018-07-26T16:47:30.389Z,4.13
2018-07-26T16:57:33.489Z,4.45
2018-07-26T17:07:36.612Z,5.43
2018-07-26T17:17:39.831Z,4.20
2018-07-26T17:27:42.905Z,4.90
2018-07-26T17:47:48.883Z,4.53
2018-07-26T17:57:51.921Z,4.10
2018-07-26T18:07:57.138Z,3.72
2018-07-26T18:18:00.210Z,4.28
2018-07-26T18:28:03.199Z,4.50
2018-07-26T18:38:06.405Z,4.20
2018-07-26T18:48:09.489Z,4.10
2018-07-26T18:58:12.612Z,4.10
2018-07-26T19:08:15.786Z,3.77
2018-07-26T19:18:18.870Z,3.72
2018-07-26T19:28:21.995Z,4.28
2018-07-26T19:38:25.260Z,4.40
2018-07-26T19:48:28.325Z,4.53
2018-07-26T19:58:31.469Z,4.62
2018-07-26T20:08:34.673Z,4.58
2018-07-26T20:18:37.762Z,4.67
2018-07-26T20:28:40.856Z,4.37
2018-07-26T20:38:43.977Z,4.22
2018-07-26T20:48:47.119Z,4.53
2018-07-26T20:58:50.279Z,4.92
2018-07-26T21:08:53.765Z,3.98
2018-07-26T21:18:56.785Z,3.90
2018-07-26T21:28:59.941Z,3.90
2018-07-26T21:39:03.310Z,3.90
2018-07-26T21:49:06.665Z,3.47
2018-07-26T21:59:09.705Z,3.72
2018-07-26T22:09:13.149Z,3.77
2018-07-26T22:19:16.223Z,3.80
2018-07-26T22:29:19.369Z,3.60
2018-07-26T22:39:22.517Z,3.25
2018-07-26T22:49:25.648Z,3.37
2018-07-26T22:59:28.757Z,3.10
2018-07-26T23:09:32.505Z,3.42
2018-07-26T23:19:35.646Z,3.22
2018-07-26T23:29:38.813Z,3.55
2018-07-26T23:39:42.242Z,3.30
2018-07-26T23:49:46.456Z,2.95
2018-07-26T23:59:49.491Z,3.12
